Pagrindinis puslapis
METAR-TAF:

METAR-TAF

Oro uostai :

Igvasu, Argentina

platuma: 25-44S, ilguma: 054-28W, Aukštis: 270 m

Dabartinis oras

Ataskaita buvo paskelbta 41 minutes, ne 09:00 UTC
Ramus vėjas
Temperatūra 17°C
Drėgmė 94%
Slėgis 1009 hPa
Matomumas 10 km arba daugiau
Išsisklaidę debesys ne aukštis 1500 ft
Apsiniaukę ne aukštis 10000 ft

METAR: SARI 180900Z 00000KT 9999 SCT015 OVC100 17/16 Q1009

Laikas: 06:41 (09:41 UTC)

Prognozė

Ataskaita buvo paskelbta 4 valandos ir 41 minutes, ne 05:00 UTC
Prognozė galioja nuo 18 metu 06 UTC su 19 metu 06 UTC
Vėjas 5 kt iš Vakarų
Išsisklaidę debesys ne aukštis 3000 ft
Apsiniaukę ne aukštis 10000 ft
Tapsmas
nuo 18 metu 16 UTC su 18 metu 18 UTC
Matomumas: 8000 m
Su prošvaistėmis ne aukštis 2500 ft
Mažai debesys ne aukštis 5000 ft, Liūtiniai kamuoliniai debesys.
perkūnija, lietus

TAF: SARI 180500Z 1806/1906 27005KT 99999 SCT030 OVC100 TX28/1816Z TN18/1810Z BECMG 1816/1818 8000 -TSRA BKN025 FEW050CB

Orai ataskaitas ir orų prognozės (METAR, TAF).

turimą stotys yra geltonos ir raudonos taškus žemėlapyje.

Perkelti pele per norėdami pamatyti stoties vardą.

Tada spustelėkite, norėdami matyti oro stebėjimo ir prognozės.

Norėdami pakeisti žemėlapį: spustelėkite ant žalios mygtukų su juodo kryžiaus žemyn,; žalią mygtuką su brūkšneliu, jei norite nutolinti; arba žalių rodyklių gretimoms žemėlapius.


METAR-TAF: